createdAt,value
2023-04-02T00:01:23.617Z,92.97
2023-04-02T00:03:53.996Z,92.76
2023-04-02T00:06:30.220Z,92.45
2023-04-02T00:09:04.561Z,92.83
2023-04-02T00:11:38.019Z,92.60
2023-04-02T00:14:15.216Z,92.07
2023-04-02T00:16:41.843Z,92.46
2023-04-02T00:19:16.744Z,92.19
2023-04-02T00:21:46.538Z,92.22
2023-04-02T00:24:19.366Z,91.98
2023-04-02T00:26:48.884Z,91.91
2023-04-02T00:29:16.865Z,92.02
2023-04-02T00:31:46.422Z,91.60
2023-04-02T00:34:23.779Z,91.81
2023-04-02T00:36:52.401Z,91.20
2023-04-02T00:39:23.450Z,91.28
2023-04-02T00:42:05.081Z,90.82
2023-04-02T00:44:34.432Z,91.06
2023-04-02T00:47:21.340Z,91.67
2023-04-02T00:49:53.662Z,91.60
2023-04-02T00:52:25.587Z,91.52
2023-04-02T00:55:17.756Z,91.23
2023-04-02T00:57:45.142Z,91.02
2023-04-02T01:00:30.731Z,91.20
2023-04-02T01:03:13.129Z,91.15
2023-04-02T01:05:42.516Z,90.68
2023-04-02T01:08:23.239Z,91.75
2023-04-02T01:11:07.782Z,91.23
2023-04-02T01:13:44.731Z,91.08
2023-04-02T01:16:22.753Z,91.21
2023-04-02T01:19:32.143Z,90.68
2023-04-02T01:22:15.325Z,90.54
2023-04-02T01:24:44.011Z,90.60
2023-04-02T01:27:16.281Z,90.46
2023-04-02T01:29:48.595Z,90.33
2023-04-02T01:32:19.725Z,89.77
2023-04-02T01:34:48.592Z,89.97
2023-04-02T01:37:50.702Z,89.50
2023-04-02T01:40:38.105Z,89.73
2023-04-02T01:43:29.522Z,89.13
2023-04-02T01:45:58.320Z,89.27
2023-04-02T01:48:30.121Z,89.64
2023-04-02T01:50:59.720Z,89.21
2023-04-02T01:53:30.287Z,89.16
2023-04-02T01:56:00.123Z,88.84
2023-04-02T01:58:31.583Z,88.76
2023-04-02T02:01:05.951Z,88.49
2023-04-02T02:03:33.652Z,89.46
2023-04-02T02:06:02.121Z,89.41
2023-04-02T02:08:44.618Z,89.51
2023-04-02T02:11:15.473Z,89.35
2023-04-02T02:13:53.138Z,89.46
2023-04-02T02:16:20.367Z,89.25
2023-04-02T02:18:54.875Z,89.07
2023-04-02T02:21:39.872Z,89.68
2023-04-02T02:24:17.089Z,89.14
2023-04-02T02:26:46.214Z,89.19
2023-04-02T02:29:18.367Z,89.65
2023-04-02T02:31:51.155Z,89.28
2023-04-02T02:34:22.892Z,89.12
2023-04-02T02:37:04.199Z,88.99
2023-04-02T02:39:39.074Z,89.33
2023-04-02T02:42:20.718Z,89.32
2023-04-02T02:44:50.424Z,89.12
2023-04-02T02:47:19.254Z,88.63
2023-04-02T02:49:54.012Z,89.06
2023-04-02T02:52:28.812Z,89.26
2023-04-02T02:55:00.190Z,88.86
2023-04-02T02:57:31.863Z,88.94
2023-04-02T03:00:00.975Z,88.85
2023-04-02T03:02:28.634Z,88.96
2023-04-02T03:04:56.609Z,88.39
2023-04-02T03:07:26.505Z,89.24
2023-04-02T03:10:05.701Z,88.69
2023-04-02T03:12:43.935Z,88.64
2023-04-02T03:15:19.183Z,88.50
2023-04-02T03:17:51.988Z,88.18
2023-04-02T03:20:35.000Z,88.17
2023-04-02T03:23:13.065Z,88.23
2023-04-02T03:25:49.145Z,88.10
2023-04-02T03:28:27.456Z,88.06
2023-04-02T03:31:02.848Z,87.38
2023-04-02T03:33:34.856Z,87.78
2023-04-02T03:36:12.854Z,87.47
2023-04-02T03:38:47.017Z,87.75
2023-04-02T03:41:29.764Z,87.68
2023-04-02T03:44:04.399Z,87.58
2023-04-02T03:46:46.386Z,86.88
2023-04-02T03:49:29.590Z,87.01
2023-04-02T03:52:04.010Z,86.99
2023-04-02T03:54:31.412Z,87.06
2023-04-02T03:56:58.530Z,86.72
2023-04-02T03:59:36.976Z,86.58
2023-04-02T04:02:34.460Z,86.84
2023-04-02T04:05:03.547Z,86.89
2023-04-02T04:07:34.628Z,86.68
2023-04-02T04:10:02.905Z,86.84
2023-04-02T04:12:47.062Z,86.37
2023-04-02T04:15:33.133Z,86.40
2023-04-02T04:18:05.911Z,86.57
2023-04-02T04:20:41.909Z,85.74
2023-04-02T04:23:19.936Z,85.40
2023-04-02T04:25:49.393Z,85.19
2023-04-02T04:28:38.321Z,85.29
2023-04-02T04:31:30.829Z,84.88
2023-04-02T04:34:05.134Z,84.33
2023-04-02T04:36:47.908Z,84.98
2023-04-02T04:39:23.447Z,84.25
2023-04-02T04:41:51.805Z,83.83
2023-04-02T04:44:36.090Z,83.48
2023-04-02T04:47:26.552Z,82.74
2023-04-02T04:50:04.285Z,82.34
2023-04-02T04:52:36.599Z,82.60
2023-04-02T04:55:04.157Z,83.11
2023-04-02T04:57:37.878Z,82.38
2023-04-02T05:00:18.029Z,82.67
2023-04-02T05:03:03.368Z,83.05
2023-04-02T05:05:33.685Z,82.72
2023-04-02T05:08:25.832Z,81.58
2023-04-02T05:10:57.609Z,81.34
2023-04-02T05:13:28.726Z,82.69
2023-04-02T05:16:08.066Z,81.48
2023-04-02T05:18:40.303Z,81.21
2023-04-02T05:21:35.606Z,81.45
2023-04-02T05:24:29.913Z,81.02
2023-04-02T05:27:03.251Z,81.62
2023-04-02T05:29:36.141Z,81.00
2023-04-02T05:32:21.103Z,80.73
2023-04-02T05:34:53.073Z,81.11
2023-04-02T05:37:22.486Z,80.94
2023-04-02T05:39:58.431Z,80.81
2023-04-02T05:42:29.355Z,80.38
2023-04-02T05:45:06.982Z,80.95
2023-04-02T05:47:35.891Z,80.77
2023-04-02T05:50:08.593Z,81.25
2023-04-02T05:52:42.036Z,80.83
2023-04-02T05:55:11.431Z,80.45
2023-04-02T05:57:51.242Z,80.31
2023-04-02T06:00:39.906Z,80.42
2023-04-02T06:03:18.103Z,81.00
2023-04-02T06:05:46.660Z,80.41
2023-04-02T06:08:31.414Z,80.54
2023-04-02T06:11:07.720Z,80.71
2023-04-02T06:13:34.679Z,80.74
2023-04-02T06:16:01.541Z,80.59
2023-04-02T06:18:33.851Z,80.91
2023-04-02T06:21:02.091Z,80.41
2023-04-02T06:23:41.637Z,80.60
2023-04-02T06:26:27.021Z,80.70
2023-04-02T06:29:04.438Z,80.09
2023-04-02T06:31:36.586Z,80.45
2023-04-02T06:34:06.909Z,80.54
2023-04-02T06:36:33.711Z,80.50
2023-04-02T06:39:07.334Z,80.36
2023-04-02T06:41:33.832Z,80.18
2023-04-02T06:44:06.577Z,80.20
2023-04-02T06:46:44.485Z,81.08
2023-04-02T06:49:33.245Z,81.08
2023-04-02T06:52:02.549Z,80.84
2023-04-02T06:54:29.026Z,81.04
2023-04-02T06:56:58.662Z,80.43
2023-04-02T06:59:25.289Z,80.91
2023-04-02T07:01:58.836Z,80.05
2023-04-02T07:04:25.757Z,80.27
2023-04-02T07:06:53.293Z,80.61
2023-04-02T07:09:19.703Z,80.67
2023-04-02T07:11:46.363Z,80.87
2023-04-02T07:14:13.341Z,80.13
2023-04-02T07:16:42.117Z,80.35
2023-04-02T07:19:17.593Z,80.22
2023-04-02T07:21:43.955Z,81.13
2023-04-02T07:24:10.340Z,80.05
2023-04-02T07:26:36.717Z,80.51
2023-04-02T07:29:03.654Z,80.31
2023-04-02T07:31:30.191Z,80.35
2023-04-02T07:34:02.549Z,80.38
2023-04-02T07:36:30.628Z,80.33
2023-04-02T07:38:57.228Z,80.75
2023-04-02T07:41:23.810Z,81.58
2023-04-02T07:43:50.556Z,81.59
2023-04-02T07:46:19.062Z,80.77
2023-04-02T07:48:46.461Z,80.99
2023-04-02T07:51:21.641Z,81.60
2023-04-02T07:53:54.821Z,81.21
2023-04-02T07:56:23.268Z,81.09
2023-04-02T07:58:49.814Z,80.82
2023-04-02T08:01:24.052Z,80.90
2023-04-02T08:03:52.999Z,81.12
2023-04-02T08:06:21.310Z,81.08
2023-04-02T08:08:47.675Z,81.26
2023-04-02T08:11:14.162Z,80.96
2023-04-02T08:13:40.626Z,80.80
2023-04-02T08:16:07.750Z,81.30
2023-04-02T08:18:35.117Z,80.45
2023-04-02T08:21:02.200Z,80.45
2023-04-02T08:23:28.728Z,79.81
2023-04-02T08:25:55.896Z,80.61
2023-04-02T08:28:22.956Z,79.76
2023-04-02T08:30:49.619Z,79.58
2023-04-02T08:33:17.942Z,79.24
2023-04-02T08:35:48.538Z,79.04
2023-04-02T08:38:16.657Z,79.82
2023-04-02T08:40:51.103Z,79.56
2023-04-02T08:43:28.845Z,79.61
2023-04-02T08:45:58.297Z,79.27
2023-04-02T08:48:24.711Z,78.74
2023-04-02T08:50:52.088Z,79.28
2023-04-02T08:53:27.290Z,78.42
2023-04-02T08:56:08.554Z,78.33
2023-04-02T08:58:45.019Z,78.36
2023-04-02T09:01:17.043Z,78.06
2023-04-02T09:03:47.892Z,78.46
2023-04-02T09:06:18.296Z,78.65
2023-04-02T09:08:47.280Z,77.85
2023-04-02T09:11:26.491Z,78.18
2023-04-02T09:14:00.600Z,77.93
2023-04-02T09:16:43.549Z,77.88
2023-04-02T09:19:35.509Z,78.69
2023-04-02T09:22:25.356Z,77.88
2023-04-02T09:24:54.159Z,77.65
2023-04-02T09:27:23.480Z,77.30
2023-04-02T09:29:55.053Z,76.52
2023-04-02T09:32:37.267Z,77.35
2023-04-02T09:35:24.580Z,77.40
2023-04-02T09:38:07.604Z,76.41
2023-04-02T09:40:46.815Z,76.38
2023-04-02T09:43:16.633Z,76.41
2023-04-02T09:45:44.858Z,76.29
2023-04-02T09:48:32.826Z,75.78
2023-04-02T09:51:11.357Z,75.69
2023-04-02T09:53:46.642Z,73.94
2023-04-02T09:56:19.399Z,72.85
2023-04-02T09:59:13.286Z,72.64
2023-04-02T10:01:45.578Z,71.88
2023-04-02T10:04:44.476Z,71.64
2023-04-02T10:07:44.540Z,71.10
2023-04-02T10:10:33.046Z,70.89
2023-04-02T10:13:01.397Z,69.39
2023-04-02T10:15:35.378Z,69.71
2023-04-02T10:18:15.057Z,69.31
2023-04-02T10:20:50.952Z,68.21
2023-04-02T10:23:19.461Z,68.48
2023-04-02T10:26:17.841Z,69.23
2023-04-02T10:29:27.166Z,68.78
2023-04-02T10:32:03.904Z,66.48
2023-04-02T10:34:54.014Z,66.52
2023-04-02T10:37:41.986Z,66.45
2023-04-02T10:40:29.258Z,67.21
2023-04-02T10:43:33.050Z,66.59
2023-04-02T10:46:26.189Z,65.61
2023-04-02T10:49:32.399Z,64.54
2023-04-02T10:52:03.903Z,64.14
2023-04-02T10:54:41.414Z,64.41
2023-04-02T10:57:16.651Z,64.20
2023-04-02T10:59:52.403Z,63.06
2023-04-02T11:02:32.128Z,63.75
2023-04-02T11:05:06.990Z,62.75
2023-04-02T11:07:46.252Z,62.19
2023-04-02T11:10:17.420Z,62.74
2023-04-02T11:12:52.578Z,62.22
2023-04-02T11:15:20.407Z,61.85
2023-04-02T11:17:47.861Z,61.55
2023-04-02T11:20:48.338Z,61.58
2023-04-02T11:23:18.752Z,61.24
2023-04-02T11:25:46.119Z,61.24
2023-04-02T11:28:13.723Z,60.14
2023-04-02T11:30:40.472Z,59.76
2023-04-02T11:33:43.097Z,60.36
2023-04-02T11:36:48.933Z,60.74
2023-04-02T11:39:53.553Z,60.85
2023-04-02T11:42:42.861Z,61.17
2023-04-02T11:45:21.544Z,60.10
2023-04-02T11:48:16.634Z,60.27
2023-04-02T11:50:45.044Z,59.77
2023-04-02T11:53:23.290Z,58.68
2023-04-02T11:56:18.686Z,59.31
2023-04-02T11:59:18.949Z,58.62
2023-04-02T12:02:00.360Z,59.01
2023-04-02T12:04:47.378Z,59.01
2023-04-02T12:07:52.136Z,59.00
2023-04-02T12:10:27.714Z,58.08
2023-04-02T12:12:54.158Z,57.82
2023-04-02T12:15:34.251Z,58.48
2023-04-02T12:18:21.276Z,58.15
2023-04-02T12:20:53.158Z,58.03
2023-04-02T12:23:31.284Z,57.55
2023-04-02T12:26:24.192Z,57.65
2023-04-02T12:28:50.550Z,57.52
2023-04-02T12:31:20.262Z,56.22
2023-04-02T12:33:46.752Z,57.31
2023-04-02T12:36:16.058Z,58.61
2023-04-02T12:38:56.969Z,57.45
2023-04-02T12:41:30.924Z,57.24
2023-04-02T12:44:06.492Z,56.90
2023-04-02T12:46:35.534Z,56.97
2023-04-02T12:49:23.512Z,57.66
2023-04-02T12:51:51.816Z,56.89
2023-04-02T12:54:19.630Z,57.26
2023-04-02T12:56:47.615Z,57.08
2023-04-02T12:59:28.682Z,58.18
2023-04-02T13:02:00.121Z,56.62
2023-04-02T13:04:27.478Z,56.87
2023-04-02T13:06:55.768Z,56.29
2023-04-02T13:09:35.000Z,56.58
2023-04-02T13:12:02.748Z,56.72
2023-04-02T13:14:29.880Z,56.82
2023-04-02T13:16:56.587Z,55.43
2023-04-02T13:19:49.240Z,55.54
2023-04-02T13:22:35.909Z,55.61
2023-04-02T13:25:02.270Z,54.93
2023-04-02T13:27:28.674Z,55.41
2023-04-02T13:29:55.210Z,55.87
2023-04-02T13:32:22.214Z,54.56
2023-04-02T13:34:48.682Z,54.61
2023-04-02T13:37:15.242Z,54.90
2023-04-02T13:39:41.645Z,54.97
2023-04-02T13:42:11.649Z,55.50
2023-04-02T13:44:38.185Z,55.88
2023-04-02T13:47:04.694Z,55.80
2023-04-02T13:49:32.015Z,54.68
2023-04-02T13:52:05.530Z,54.22
2023-04-02T13:54:38.634Z,54.71
2023-04-02T13:57:05.021Z,53.95
2023-04-02T13:59:31.432Z,53.84
2023-04-02T14:02:05.615Z,54.17
2023-04-02T14:04:38.261Z,54.46
2023-04-02T14:07:43.607Z,55.32
2023-04-02T14:10:53.141Z,55.43
2023-04-02T14:13:45.008Z,55.03
2023-04-02T14:16:36.645Z,54.70
2023-04-02T14:19:23.894Z,54.61
2023-04-02T14:22:27.028Z,54.40
2023-04-02T14:25:31.714Z,54.73
2023-04-02T14:28:08.072Z,54.05
2023-04-02T14:30:50.052Z,55.28
2023-04-02T14:33:43.305Z,55.38
2023-04-02T14:36:23.852Z,55.27
2023-04-02T14:38:56.113Z,55.82
2023-04-02T14:41:30.572Z,54.88
2023-04-02T14:44:03.318Z,55.08
2023-04-02T14:46:32.463Z,55.25
2023-04-02T14:49:20.827Z,55.54
2023-04-02T14:51:56.256Z,55.10
2023-04-02T14:54:35.947Z,54.58
2023-04-02T14:57:12.539Z,54.95
2023-04-02T14:59:57.102Z,55.14
2023-04-02T15:02:51.515Z,54.70
2023-04-02T15:05:24.395Z,54.78
2023-04-02T15:07:57.651Z,54.53
2023-04-02T15:10:52.041Z,54.37
2023-04-02T15:13:22.750Z,53.44
2023-04-02T15:15:56.583Z,54.81
2023-04-02T15:18:23.205Z,53.59
2023-04-02T15:21:19.331Z,54.37
2023-04-02T15:24:05.678Z,54.21
2023-04-02T15:26:56.882Z,54.46
2023-04-02T15:29:39.382Z,54.99
2023-04-02T15:32:29.506Z,54.15
2023-04-02T15:35:49.804Z,54.92
2023-04-02T15:38:26.458Z,54.57
2023-04-02T15:41:02.118Z,54.31
2023-04-02T15:43:43.917Z,53.38
2023-04-02T15:46:58.430Z,54.84
2023-04-02T15:49:41.873Z,53.76
2023-04-02T15:52:20.919Z,53.65
2023-04-02T15:58:44.920Z,54.04
2023-04-02T16:01:23.659Z,53.78
2023-04-02T16:04:19.529Z,54.99
2023-04-02T16:07:19.101Z,54.68
2023-04-02T16:09:59.779Z,54.97
2023-04-02T16:12:27.637Z,55.20
2023-04-02T16:15:27.250Z,54.81
2023-04-02T16:18:02.520Z,54.11
2023-04-02T16:20:36.857Z,54.58
2023-04-02T16:23:12.590Z,55.25
2023-04-02T16:25:48.783Z,54.95
2023-04-02T16:28:26.163Z,55.23
2023-04-02T16:31:04.716Z,55.79
2023-04-02T16:34:05.781Z,56.21
2023-04-02T16:36:58.214Z,56.01
2023-04-02T16:39:49.142Z,56.11
2023-04-02T16:42:45.375Z,56.19
2023-04-02T16:45:18.033Z,57.56
2023-04-02T16:47:58.740Z,57.76
2023-04-02T16:50:39.506Z,57.37
2023-04-02T16:53:37.910Z,57.98
2023-04-02T16:56:36.438Z,58.26
2023-04-02T16:59:14.635Z,58.55
2023-04-02T17:01:59.176Z,58.03
2023-04-02T17:04:52.402Z,58.74
2023-04-02T17:07:43.688Z,58.50
2023-04-02T17:10:24.264Z,58.36
2023-04-02T17:13:15.318Z,58.90
2023-04-02T17:15:45.924Z,59.33
2023-04-02T17:18:20.997Z,59.81
2023-04-02T17:20:48.220Z,59.83
2023-04-02T17:23:16.936Z,60.10
2023-04-02T17:26:07.095Z,60.06
2023-04-02T17:28:37.836Z,60.61
2023-04-02T17:31:16.686Z,61.01
2023-04-02T17:33:43.216Z,61.49
2023-04-02T17:36:29.806Z,62.06
2023-04-02T17:39:18.005Z,61.64
2023-04-02T17:42:10.329Z,61.72
2023-04-02T17:45:08.989Z,62.02
2023-04-02T17:48:14.052Z,62.05
2023-04-02T17:51:00.345Z,61.86
2023-04-02T17:53:31.388Z,61.61
2023-04-02T17:56:10.311Z,62.85
2023-04-02T17:59:12.769Z,62.96
2023-04-02T18:01:50.682Z,62.66
2023-04-02T18:04:35.418Z,62.48
2023-04-02T18:07:23.473Z,62.67
2023-04-02T18:10:14.649Z,62.57
2023-04-02T18:12:56.966Z,63.58
2023-04-02T18:15:41.549Z,62.21
2023-04-02T18:18:14.031Z,62.77
2023-04-02T18:20:54.513Z,63.16
2023-04-02T18:23:20.862Z,63.29
2023-04-02T18:26:17.783Z,63.30
2023-04-02T18:29:08.067Z,63.63
2023-04-02T18:31:54.291Z,63.99
2023-04-02T18:35:14.416Z,64.57
2023-04-02T18:38:18.344Z,64.59
2023-04-02T18:41:01.733Z,64.99
2023-04-02T18:43:31.124Z,65.50
2023-04-02T18:46:26.326Z,65.57
2023-04-02T18:48:57.559Z,66.13
2023-04-02T18:51:27.088Z,66.85
2023-04-02T18:54:25.802Z,66.81
2023-04-02T18:56:52.216Z,66.91
2023-04-02T18:59:28.697Z,66.55
2023-04-02T19:01:58.381Z,67.71
2023-04-02T19:04:32.681Z,67.00
2023-04-02T19:07:16.355Z,66.31
2023-04-02T19:09:50.662Z,66.91
2023-04-02T19:12:22.163Z,66.75
2023-04-02T19:14:51.073Z,66.99
2023-04-02T19:17:35.944Z,66.66
2023-04-02T19:20:24.704Z,66.67
2023-04-02T19:23:13.819Z,67.10
2023-04-02T19:26:06.952Z,67.05
2023-04-02T19:29:04.020Z,67.35
2023-04-02T19:31:58.265Z,67.87
2023-04-02T19:34:41.609Z,67.89
2023-04-02T19:37:17.975Z,67.98
2023-04-02T19:40:27.053Z,68.04
2023-04-02T19:42:54.332Z,67.78
2023-04-02T19:45:33.048Z,68.36
2023-04-02T19:48:03.558Z,68.83
2023-04-02T19:50:30.497Z,69.47
2023-04-02T19:52:57.633Z,69.79
2023-04-02T19:55:24.120Z,69.74
2023-04-02T19:57:52.670Z,69.56
2023-04-02T20:00:21.295Z,69.51
2023-04-02T20:02:47.716Z,69.25
2023-04-02T20:05:14.294Z,69.58
2023-04-02T20:07:40.840Z,69.41
2023-04-02T20:10:08.061Z,70.11
2023-04-02T20:12:34.447Z,69.34
2023-04-02T20:15:00.914Z,69.02
2023-04-02T20:17:28.299Z,69.23
2023-04-02T20:19:54.742Z,68.75
2023-04-02T20:22:21.184Z,67.89
2023-04-02T20:24:47.580Z,68.13
2023-04-02T20:27:14.050Z,68.45
2023-04-02T20:29:42.313Z,68.57
2023-04-02T20:32:09.880Z,68.38
2023-04-02T20:34:36.755Z,68.28
2023-04-02T20:37:03.221Z,68.07
2023-04-02T20:39:29.726Z,68.69
2023-04-02T20:42:01.064Z,68.36
2023-04-02T20:44:28.412Z,68.06
2023-04-02T20:46:55.370Z,67.89
2023-04-02T20:49:21.824Z,68.38
2023-04-02T20:51:48.652Z,67.79
2023-04-02T20:54:15.953Z,67.88
2023-04-02T20:56:43.177Z,67.76
2023-04-02T20:59:09.648Z,67.96
2023-04-02T21:01:36.402Z,68.15
2023-04-02T21:04:03.871Z,67.93
2023-04-02T21:06:32.735Z,67.65
2023-04-02T21:09:00.338Z,67.88
2023-04-02T21:11:26.723Z,67.38
2023-04-02T21:13:53.312Z,67.90
2023-04-02T21:16:29.164Z,68.10
2023-04-02T21:18:58.273Z,67.44
2023-04-02T21:21:25.496Z,67.62
2023-04-02T21:24:00.289Z,67.55
2023-04-02T21:26:27.659Z,68.02
2023-04-02T21:28:54.691Z,67.66
2023-04-02T21:31:27.540Z,67.68
2023-04-02T21:33:56.624Z,67.70
2023-04-02T21:36:25.590Z,68.05
2023-04-02T21:38:57.662Z,67.68
2023-04-02T21:41:31.813Z,67.56
2023-04-02T21:43:59.569Z,68.04
2023-04-02T21:46:28.621Z,67.56
2023-04-02T21:48:58.006Z,67.36
2023-04-02T21:51:32.606Z,67.50
2023-04-02T21:54:00.249Z,67.64
2023-04-02T21:56:29.217Z,67.88
2023-04-02T21:59:01.797Z,67.98
2023-04-02T22:01:32.181Z,67.93
2023-04-02T22:04:01.327Z,68.27
2023-04-02T22:06:30.157Z,67.98
2023-04-02T22:09:02.068Z,68.15
2023-04-02T22:11:32.473Z,68.55
2023-04-02T22:13:59.114Z,68.57
2023-04-02T22:16:28.741Z,68.53
2023-04-02T22:18:57.013Z,68.19
2023-04-02T22:21:23.621Z,68.58
2023-04-02T22:23:50.324Z,68.24
2023-04-02T22:26:18.503Z,68.65
2023-04-02T22:28:45.670Z,68.37
2023-04-02T22:31:23.756Z,68.93
2023-04-02T22:33:52.606Z,68.66
2023-04-02T22:36:20.863Z,69.04
2023-04-02T22:38:47.365Z,69.01
2023-04-02T22:41:16.249Z,69.28
2023-04-02T22:43:44.119Z,68.33
2023-04-02T22:46:12.982Z,68.80
2023-04-02T22:48:40.174Z,69.36
2023-04-02T22:51:07.948Z,69.11
2023-04-02T22:53:35.321Z,68.77
2023-04-02T22:56:06.749Z,68.56
2023-04-02T22:58:33.935Z,68.92
2023-04-02T23:01:08.377Z,68.91
2023-04-02T23:03:34.817Z,68.97
2023-04-02T23:06:04.962Z,69.12
2023-04-02T23:08:31.525Z,69.81
2023-04-02T23:11:03.412Z,69.53
2023-04-02T23:13:29.877Z,69.91
2023-04-02T23:15:56.390Z,69.57
2023-04-02T23:18:23.016Z,69.51
2023-04-02T23:20:49.414Z,69.30
2023-04-02T23:23:15.780Z,69.48
2023-04-02T23:25:43.042Z,69.30
2023-04-02T23:28:10.574Z,69.21
2023-04-02T23:30:37.154Z,70.04
2023-04-02T23:33:04.751Z,69.18
2023-04-02T23:35:31.249Z,68.86
2023-04-02T23:37:57.638Z,69.25
2023-04-02T23:40:24.006Z,68.91
2023-04-02T23:42:50.464Z,69.90
2023-04-02T23:45:17.545Z,69.25
2023-04-02T23:47:43.967Z,68.97
2023-04-02T23:50:11.041Z,68.99
2023-04-02T23:52:37.530Z,69.07
2023-04-02T23:55:04.117Z,69.49
2023-04-02T23:57:30.800Z,69.27
2023-04-02T23:59:57.188Z,69.09
